Samburg, TN (38254)

2:06 AM CDT on August 30, 2014 (GMT -0500)
KTNUNION3 | Change Station
CLOSE
Current Station
Personal Weather Station
Location: Union City, TN
Elevation: 360 ft
Nearby Weather Stations

Elev 360 ft 36.41 °N, 89.05 °W | Updated 5 minutes ago

Partly Cloudy
Partly Cloudy
74.7 °F
Feels Like 74 °F
N
1.0
Wind Variable Wind from ESE
Gusts 3.0 mph

Today
High -- | Low -- °F
--% Chance of Precip.
Yesterday
High -- | Low -- °F
Precip. -- in
6:27 AM 7:27 PM
Waxing Crescent, 19% visible
Pressure 29.99 in
Visibility 10.0 miles
Clouds Few 6500 ft
Mostly Cloudy 8000 ft
Heat Index 74 °F
Dew Point 71 °F
Humidity 89%
Rainfall 0.00 in
Snow Depth Not available.
UV 0 out of 12
Pollen 10.60 out of 12
Air Quality Not available.
Flu Activity Not available.
METAR KUCY 300655Z AUTO 00000KT 10SM FEW065 BKN080 23/22 A2999 RMK

More Conditions Fewer Conditions

Pressure 29.99 in
Visibility 10.0 miles
Clouds Few 6500 ft
Mostly Cloudy 8000 ft
Heat Index 74 °F
Dew Point 71 °F
Humidity 89%
Rainfall 0.00 in
Snow Depth Not available.
UV 0 out of 12
Pollen 10.60 out of 12
Air Quality Not available.
Flu Activity Not available.
METAR KUCY 300655Z AUTO 00000KT 10SM FEW065 BKN080 23/22 A2999 RMK

More Conditions Fewer Conditions

10-Day Weather Forecast

Almanac

Astronomy

Aug. 30, 2014 Rise Set
Actual Time 6:27 AM CDT 7:27 PM CDT
Civil Twilight 6:00 AM CDT 7:54 PM CDT
Nautical Twilight 5:29 AM CDT 8:25 PM CDT
Astronomical Twilight 4:56 AM CDT 8:57 PM CDT
Moon 11:05 AM CDT 10:11 PM CDT
Length of Visible Light 13h 53m
Length of Day
13h 00m
Tomorrow will be 2m 11s shorter.
Waxing Crescent, 19% of the Moon is Illuminated
Today
Waxing Crescent
Sep 2
First Quarter
Sep 8
Full
Sep 15
Last Quarter
Sep 24
New

Today's Extremes

State Highs State Lows

Community

WunderPhotos

Upload Photos

1,748,462 photos uploaded!

Nearby

Snow Depth

Station Depth Elevation
No new snow has been reported.

Earthquake Activity

City Distance Mag. Time & Date
No recent earthquake activity has been reported nearby.
Minimum magnitude displayed is 2.5.

Coastal Water Temperatures

Place Temperature
No Stations Reporting

Nearby Weather Stations